الصفحة الرئيسية
METAR-TAF:

METAR-TAF

مطار :

هونيارا, جوادالكانال, جزر سولومون

دائرة عرض: 09-25S, خط طول: 160-03E, ارتفاع: 8 متر

مراقبة الطقس الحالي

تاريخ ووقت الإصدار 38 دقيقة قبل الساعة 17:00UTC
ريح 4 عقدة من الجنوب الشرقي
درجة الحرارة 23°درجة مئوية
الرطوبة 100%
ضغط 1010 hPa
الرؤية 10 كم أو أكثر
غيوم قليلة على ارتفاع 1500 قدم
غيوم متفرقة على ارتفاع 2700 قدم
ملبد بالغيوم على ارتفاع 10000 قدم

METAR: AGGH 141700Z 14004KT 9999 FEW015 SCT027 OVC100 23/23 Q1010

زمن: 04:38 (17:38 UTC)

توقعات

تاريخ ووقت الإصدار 6ساعات و 23 دقيقة قبل الساعة 11:15UTC
التوقعات صالحة من14 الساعة 12 UTC إلى 15 الساعة 12 UTC
ريح 3 عقدةمن اتجاهات متغيرة
الرؤية 10 كم أو أكثر
غيوم قليلة على ارتفاع 1600 قدم
غيوم متفرقة على ارتفاع 10000 قدم
(خفيف) زخات, رذاذ
نظرية الاحتمالات 40%
بين IN و TE UTC
الرؤية: 1013 متر
غيوم متفرقة على ارتفاع 1500 قدم
غيوم قليلة على ارتفاع 1500 قدم, مزنة ركامية.
غيوم مفككة على ارتفاع 2600 قدم

TAF: AGGH 141115Z 1412/1512 VRB03KT 9999 -SHDZ FEW016 SCT100 PROB40 INTER 1412/1418 5000 TSSH SCT015 FEW015CB BKN026 T 25 23 23 26 Q 1012 1010 1011 1013

أرصاد الطقس والتوقعات من أكثر من 4000 مطار (تقارير الطقس للمطار METAR والتنبؤ بالطقس بالمطارTAF).

المحطات المتاحة هي النقط الصفراء والحمراء على الخريطة.

حرك المؤشر فوق النقطة لمعرفة اسم المحطة.

ثم انقر لمعرفة أرصاد وتوقعات الطقس.

لتغيير الخارطة: اضغط على الأزرار الخضراء مع رمز الصليب الأسود للتكبير. على الزر الأخضر مع شرطة للتصغير، أو على الأسهم الخضراء للخرائط المجاورة.


METAR-TAF: